Time;durP1;ratioP1;P1;durP2;ratioP2;P2;SDS_P1;SDS_P2;PMS_P1;PMS_P2;Temp;Humidity;BMP_temperature;BMP_pressure;BME280_temperature;BME280_humidity;BME280_pressure;Samples;Min_cycle;Max_cycle;Signal;HPM_P1;HPM_P2
2023/03/20 00:00:32;;;;;;;9.90;7.07;;;9.70;99.90;;;;;;6278538;22;20095;-91
2023/03/20 00:02:57;;;;;;;11.20;7.55;;;9.70;99.90;;;;;;6278621;22;20500;-91
2023/03/20 00:05:25;;;;;;;10.55;7.20;;;9.70;99.90;;;;;;6278365;22;20042;-92
2023/03/20 00:07:52;;;;;;;11.23;7.03;;;9.70;99.90;;;;;;6251523;22;20440;-92
2023/03/20 00:10:18;;;;;;;10.93;7.80;;;9.70;99.90;;;;;;6278095;22;20436;-91
2023/03/20 00:12:47;;;;;;;10.60;7.45;;;9.70;99.90;;;;;;6277807;22;20016;-91
2023/03/20 00:15:31;;;;;;;12.98;7.35;;;9.70;99.90;;;;;;6278663;22;20023;-92
2023/03/20 00:17:58;;;;;;;11.07;7.47;;;9.70;99.90;;;;;;6277877;22;20043;-92
2023/03/20 00:20:24;;;;;;;11.57;6.78;;;9.70;99.90;;;;;;6278104;22;20468;-91
2023/03/20 00:22:50;;;;;;;10.05;7.18;;;9.70;99.90;;;;;;6250755;22;20007;-92
2023/03/20 00:25:19;;;;;;;12.38;7.80;;;9.70;99.90;;;;;;6277802;22;20446;-91
2023/03/20 00:27:45;;;;;;;12.98;6.57;;;9.70;99.90;;;;;;6251312;22;20035;-91
2023/03/20 00:30:22;;;;;;;11.50;7.70;;;9.70;99.90;;;;;;6278447;22;20058;-92
2023/03/20 00:32:49;;;;;;;12.93;7.80;;;9.70;99.90;;;;;;6250545;22;20022;-91
2023/03/20 00:35:22;;;;;;;10.80;7.50;;;9.60;99.90;;;;;;6251049;22;20332;-92
2023/03/20 00:37:49;;;;;;;9.80;6.85;;;9.60;99.90;;;;;;6251149;22;20432;-91
2023/03/20 00:40:14;;;;;;;11.18;6.65;;;9.60;99.90;;;;;;6277396;22;20471;-91
2023/03/20 00:42:41;;;;;;;12.38;6.45;;;9.60;99.90;;;;;;6250984;22;20022;-92
2023/03/20 00:45:13;;;;;;;11.38;6.63;;;9.60;99.90;;;;;;6278249;22;20019;-92
2023/03/20 00:47:40;;;;;;;12.35;6.35;;;9.60;99.90;;;;;;6250897;22;20344;-91
2023/03/20 00:50:15;;;;;;;11.70;6.43;;;9.60;99.90;;;;;;6250989;22;20015;-91
2023/03/20 00:52:41;;;;;;;11.45;6.82;;;9.60;99.90;;;;;;6250537;22;20016;-91
2023/03/20 00:55:08;;;;;;;11.50;6.50;;;9.60;99.90;;;;;;6250486;22;20068;-92
2023/03/20 00:57:48;;;;;;;11.65;6.78;;;9.60;99.90;;;;;;6250800;22;20015;-92
2023/03/20 01:00:39;;;;;;;11.20;7.03;;;9.60;99.90;;;;;;6277482;22;20022;-91
2023/03/20 01:03:24;;;;;;;9.85;6.63;;;9.60;99.90;;;;;;6250883;22;20022;-91
2023/03/20 01:05:51;;;;;;;13.20;6.95;;;9.50;99.90;;;;;;6251369;22;20020;-92
2023/03/20 01:08:19;;;;;;;15.27;6.95;;;9.50;99.90;;;;;;6276958;22;20467;-91
2023/03/20 01:10:47;;;;;;;11.30;6.57;;;9.50;99.90;;;;;;6249575;22;20091;-91
2023/03/20 01:13:26;;;;;;;14.82;6.95;;;9.50;99.90;;;;;;6275565;22;20313;-93
2023/03/20 01:15:54;;;;;;;19.35;7.47;;;9.50;99.90;;;;;;6249193;22;20019;-90
2023/03/20 01:18:21;;;;;;;9.82;6.20;;;9.40;99.90;;;;;;6249104;22;20082;-90
2023/03/20 01:20:48;;;;;;;14.27;6.95;;;9.40;99.90;;;;;;6249491;22;20008;-91
2023/03/20 01:23:14;;;;;;;11.20;6.70;;;9.40;99.90;;;;;;6276195;22;20455;-91
2023/03/20 01:25:40;;;;;;;12.48;6.97;;;9.40;99.90;;;;;;6276730;22;20527;-92
2023/03/20 01:28:32;;;;;;;15.30;7.40;;;9.40;99.90;;;;;;6248969;22;20321;-91
2023/03/20 01:30:59;;;;;;;12.35;6.95;;;9.40;99.90;;;;;;6244240;22;20046;-91
2023/03/20 01:33:25;;;;;;;9.75;6.05;;;9.40;99.90;;;;;;6249034;22;20008;-90
2023/03/20 01:35:51;;;;;;;10.10;6.28;;;9.40;99.90;;;;;;6249943;22;20020;-91
2023/03/20 01:38:23;;;;;;;12.10;6.65;;;9.40;99.90;;;;;;6249112;22;20337;-90
2023/03/20 01:41:13;;;;;;;18.77;7.22;;;9.40;99.90;;;;;;6276248;22;20061;-91
2023/03/20 01:43:39;;;;;;;15.90;6.88;;;9.30;99.90;;;;;;6276432;22;20023;-91
2023/03/20 01:46:08;;;;;;;19.50;6.75;;;9.30;99.90;;;;;;6276762;22;20008;-91
2023/03/20 01:48:49;;;;;;;14.80;6.30;;;9.30;99.90;;;;;;6248996;22;20008;-91
2023/03/20 01:51:21;;;;;;;12.27;6.38;;;9.30;99.90;;;;;;6249119;22;20023;-90
2023/03/20 01:54:03;;;;;;;11.75;6.43;;;9.30;99.90;;;;;;6249435;22;20084;-91
2023/03/20 01:56:33;;;;;;;17.13;6.20;;;9.30;99.90;;;;;;6248832;22;20073;-91
2023/03/20 01:59:03;;;;;;;13.10;6.38;;;9.30;99.90;;;;;;6276470;22;20011;-91
2023/03/20 02:01:29;;;;;;;11.93;6.10;;;9.30;99.90;;;;;;6249037;22;20040;-91
2023/03/20 02:03:56;;;;;;;9.93;6.20;;;9.30;99.90;;;;;;6249973;22;20022;-91
2023/03/20 02:06:24;;;;;;;14.85;6.07;;;9.20;99.90;;;;;;6277357;22;20015;-92
2023/03/20 02:08:51;;;;;;;12.65;6.28;;;9.30;99.90;;;;;;6250401;22;20015;-91
2023/03/20 02:11:21;;;;;;;15.93;6.30;;;9.20;99.90;;;;;;6249183;22;20079;-92
2023/03/20 02:13:46;;;;;;;13.70;6.40;;;9.30;99.90;;;;;;6277144;22;20467;-92
2023/03/20 02:16:14;;;;;;;12.95;6.80;;;9.20;99.90;;;;;;6249448;22;20011;-91
2023/03/20 02:18:43;;;;;;;11.75;5.95;;;9.20;99.90;;;;;;6249734;22;20055;-91
2023/03/20 02:21:48;;;;;;;21.30;8.13;;;9.20;99.90;;;;;;6249887;22;20062;-91
2023/03/20 02:24:19;;;;;;;22.73;9.20;;;9.20;99.90;;;;;;6254492;22;20012;-92
2023/03/20 02:27:06;;;;;;;16.67;8.48;;;9.20;99.90;;;;;;6277553;22;20020;-92
2023/03/20 02:30:08;;;;;;;16.17;9.07;;;9.10;99.90;;;;;;6249708;22;20016;-92
2023/03/20 02:32:36;;;;;;;10.75;6.07;;;9.10;99.90;;;;;;6277010;22;20012;-91
2023/03/20 02:35:22;;;;;;;18.42;9.15;;;9.10;99.90;;;;;;6249954;22;20019;-91
2023/03/20 02:38:16;;;;;;;15.98;7.07;;;9.10;99.90;;;;;;6275979;22;20457;-91
2023/03/20 02:41:07;;;;;;;20.17;10.48;;;9.10;99.90;;;;;;6276497;22;20065;-91
2023/03/20 02:43:43;;;;;;;18.27;8.80;;;9.00;99.90;;;;;;6275574;22;20012;-91
2023/03/20 02:46:12;;;;;;;14.55;7.85;;;9.00;99.90;;;;;;6276606;22;20019;-91
2023/03/20 02:48:53;;;;;;;14.40;7.68;;;9.10;99.90;;;;;;6250060;22;20019;-91
2023/03/20 02:51:46;;;;;;;19.45;9.32;;;9.00;99.90;;;;;;6249600;22;20548;-91
2023/03/20 02:54:16;;;;;;;12.50;7.47;;;9.00;99.90;;;;;;6276940;22;20047;-91
2023/03/20 02:56:47;;;;;;;16.42;8.13;;;9.00;99.90;;;;;;6250238;22;20045;-91
2023/03/20 02:59:34;;;;;;;21.52;9.90;;;9.00;99.90;;;;;;6276366;22;20051;-91
2023/03/20 03:02:09;;;;;;;16.17;8.80;;;9.00;99.90;;;;;;6276966;22;20491;-90
2023/03/20 03:04:39;;;;;;;17.98;9.73;;;9.00;99.90;;;;;;6249992;22;20351;-91
2023/03/20 03:07:07;;;;;;;15.98;9.38;;;9.00;99.90;;;;;;6250164;22;20113;-91
2023/03/20 03:09:52;;;;;;;21.25;9.57;;;9.00;99.90;;;;;;6249322;22;20087;-91
2023/03/20 03:12:22;;;;;;;22.13;9.73;;;9.00;99.90;;;;;;6249172;22;20008;-90
2023/03/20 03:14:55;;;;;;;15.52;9.20;;;8.90;99.90;;;;;;6249661;22;20026;-91
2023/03/20 03:17:24;;;;;;;20.27;10.60;;;9.00;99.90;;;;;;6250137;22;20094;-92
2023/03/20 03:19:54;;;;;;;15.02;8.60;;;8.90;99.90;;;;;;6249679;22;20452;-91
2023/03/20 03:22:20;;;;;;;15.18;7.97;;;8.90;99.90;;;;;;6249470;22;20016;-91
2023/03/20 03:24:55;;;;;;;13.95;8.50;;;8.90;99.90;;;;;;6249611;22;20018;-91
2023/03/20 03:27:23;;;;;;;20.33;10.50;;;8.90;99.90;;;;;;6249560;22;20020;-91
2023/03/20 03:29:59;;;;;;;18.13;9.95;;;8.90;99.90;;;;;;6276867;22;20020;-91
2023/03/20 03:32:34;;;;;;;14.48;8.82;;;8.90;99.90;;;;;;6249439;22;20087;-91
2023/03/20 03:35:02;;;;;;;19.45;10.05;;;8.90;99.90;;;;;;6275700;22;20030;-91
2023/03/20 03:37:48;;;;;;;17.75;9.40;;;8.90;99.90;;;;;;6249801;22;20012;-91
2023/03/20 03:40:17;;;;;;;17.92;9.15;;;8.90;99.90;;;;;;6276388;22;20086;-91
2023/03/20 03:42:57;;;;;;;16.63;9.02;;;8.80;99.90;;;;;;6276771;22;20014;-91
2023/03/20 03:45:43;;;;;;;15.52;8.98;;;8.80;99.90;;;;;;6249849;22;20016;-90
2023/03/20 03:48:15;;;;;;;16.52;8.77;;;8.80;99.90;;;;;;6276788;22;20011;-91
2023/03/20 03:50:50;;;;;;;19.35;9.57;;;8.80;99.90;;;;;;6276858;22;20062;-91
2023/03/20 03:53:41;;;;;;;13.88;8.95;;;8.90;99.90;;;;;;6249300;22;20012;-91
2023/03/20 03:56:11;;;;;;;13.25;8.68;;;8.80;99.90;;;;;;6277068;22;20057;-90
2023/03/20 03:58:41;;;;;;;16.23;8.93;;;8.80;99.90;;;;;;6278435;22;20336;-91
2023/03/20 04:01:10;;;;;;;18.40;9.43;;;8.80;99.90;;;;;;6278565;22;20023;-91
2023/03/20 04:03:40;;;;;;;15.10;8.80;;;8.80;99.90;;;;;;6250646;22;20015;-91
2023/03/20 04:06:10;;;;;;;14.68;8.45;;;8.80;99.90;;;;;;6278726;22;20070;-91
2023/03/20 04:08:36;;;;;;;14.15;8.27;;;8.80;99.90;;;;;;6251127;22;20064;-90
2023/03/20 04:11:01;;;;;;;17.25;8.98;;;8.80;99.90;;;;;;6278242;22;20404;-91
2023/03/20 04:13:27;;;;;;;15.93;8.25;;;8.80;99.90;;;;;;6250944;22;20012;-91
2023/03/20 04:15:53;;;;;;;14.55;8.35;;;8.80;99.90;;;;;;6278700;22;20020;-90
2023/03/20 04:18:18;;;;;;;14.02;8.32;;;8.80;99.90;;;;;;6250562;22;20084;-92
2023/03/20 04:20:46;;;;;;;16.77;8.75;;;8.80;99.90;;;;;;6278702;22;20021;-92
2023/03/20 04:23:12;;;;;;;16.15;8.43;;;8.80;99.90;;;;;;6250938;22;20459;-91
2023/03/20 04:25:38;;;;;;;19.13;8.18;;;8.80;99.90;;;;;;6250872;22;20043;-91
2023/03/20 04:28:04;;;;;;;15.18;7.95;;;8.80;99.90;;;;;;6278554;22;20427;-91
2023/03/20 04:30:29;;;;;;;16.98;8.93;;;8.80;99.90;;;;;;6278357;22;20497;-90
2023/03/20 04:32:56;;;;;;;13.63;8.15;;;8.80;99.90;;;;;;6250307;22;20062;-90
2023/03/20 04:35:21;;;;;;;12.63;7.93;;;8.80;99.90;;;;;;6251047;22;20012;-92
2023/03/20 04:37:47;;;;;;;16.40;8.80;;;8.80;99.90;;;;;;6278300;22;20323;-90
2023/03/20 04:40:13;;;;;;;14.38;7.47;;;8.80;99.90;;;;;;6251229;22;20016;-90
2023/03/20 04:42:39;;;;;;;15.60;7.95;;;8.80;99.90;;;;;;6250781;22;20007;-92
2023/03/20 04:45:05;;;;;;;15.25;7.38;;;8.70;99.90;;;;;;6278192;22;20448;-91
2023/03/20 04:47:31;;;;;;;11.05;7.40;;;8.70;99.90;;;;;;6250168;22;20035;-89
2023/03/20 04:49:57;;;;;;;15.57;7.38;;;8.80;99.90;;;;;;6250492;22;20774;-89
2023/03/20 04:52:22;;;;;;;10.75;7.15;;;8.70;99.90;;;;;;6249342;22;20097;-88
2023/03/20 04:54:48;;;;;;;16.55;7.25;;;8.70;99.90;;;;;;6249902;22;20011;-89
2023/03/20 04:57:13;;;;;;;13.35;7.25;;;8.70;99.90;;;;;;6250092;22;20023;-89
2023/03/20 04:59:39;;;;;;;13.77;7.03;;;8.70;99.90;;;;;;6237109;22;20379;-89
2023/03/20 05:02:05;;;;;;;15.68;7.35;;;8.70;99.90;;;;;;6250130;22;20578;-90
2023/03/20 05:04:30;;;;;;;12.05;6.88;;;8.70;99.90;;;;;;6277006;22;20019;-90
2023/03/20 05:06:56;;;;;;;13.68;7.35;;;8.70;99.90;;;;;;6249784;22;20019;-89
2023/03/20 05:09:21;;;;;;;12.80;7.43;;;8.60;99.90;;;;;;6277912;22;20016;-88
2023/03/20 05:11:47;;;;;;;11.55;7.18;;;8.60;99.90;;;;;;6250193;22;20500;-88
2023/03/20 05:14:13;;;;;;;12.00;7.03;;;8.60;99.90;;;;;;6249659;22;20463;-89
2023/03/20 05:16:39;;;;;;;15.15;7.20;;;8.60;99.90;;;;;;6250728;22;20031;-88
2023/03/20 05:19:51;;;;;;;14.98;7.65;;;8.60;99.90;;;;;;6250255;22;20012;-94
2023/03/20 05:23:01;;;;;;;14.90;8.52;;;8.60;99.90;;;;;;6278815;22;20069;-93
2023/03/20 05:25:27;;;;;;;16.83;9.18;;;8.60;99.90;;;;;;6160554;23;20017;-93
2023/03/20 05:27:53;;;;;;;16.60;9.63;;;8.60;99.90;;;;;;6159953;23;20354;-90
2023/03/20 05:30:18;;;;;;;17.10;10.07;;;8.60;99.90;;;;;;6205861;22;20023;-93
2023/03/20 05:32:51;;;;;;;17.65;10.02;;;8.50;99.90;;;;;;6251032;22;20019;-91
2023/03/20 05:35:17;;;;;;;16.05;10.60;;;8.50;99.90;;;;;;6250776;22;20012;-91
2023/03/20 05:37:43;;;;;;;14.35;8.30;;;8.50;99.90;;;;;;6278530;22;20022;-91
2023/03/20 05:40:12;;;;;;;17.60;11.30;;;8.50;99.90;;;;;;6278092;22;20051;-91
2023/03/20 05:42:37;;;;;;;13.75;8.82;;;8.50;99.90;;;;;;6250362;22;20344;-91
2023/03/20 05:45:04;;;;;;;14.45;8.88;;;8.50;99.90;;;;;;6250697;22;20046;-90
2023/03/20 05:47:30;;;;;;;15.90;9.30;;;8.50;99.90;;;;;;6250466;22;20016;-90
2023/03/20 05:49:55;;;;;;;14.52;9.73;;;8.50;99.90;;;;;;6277702;22;20007;-90
2023/03/20 05:52:21;;;;;;;15.68;9.88;;;8.50;99.90;;;;;;6277716;22;20019;-91
2023/03/20 05:54:47;;;;;;;15.35;10.00;;;8.50;99.90;;;;;;6250322;22;20022;-90
2023/03/20 05:57:14;;;;;;;16.95;10.52;;;8.50;99.90;;;;;;6250214;22;20395;-91
2023/03/20 05:59:40;;;;;;;20.77;10.85;;;8.50;99.90;;;;;;6250511;22;20016;-90
2023/03/20 06:02:05;;;;;;;15.60;9.30;;;8.50;99.90;;;;;;6250527;22;20050;-91
2023/03/20 06:04:31;;;;;;;19.40;10.52;;;8.50;99.90;;;;;;6276950;22;20371;-90
2023/03/20 06:06:57;;;;;;;17.40;9.30;;;8.50;99.90;;;;;;6250188;22;20065;-91
2023/03/20 06:09:23;;;;;;;18.48;10.63;;;8.50;99.90;;;;;;6249267;22;20443;-91
2023/03/20 06:11:48;;;;;;;20.02;10.20;;;8.50;99.90;;;;;;6249998;22;20471;-90
2023/03/20 06:14:14;;;;;;;16.50;10.30;;;8.50;99.90;;;;;;6249785;22;20014;-91
2023/03/20 06:16:39;;;;;;;15.60;9.90;;;8.50;99.90;;;;;;6277395;22;20119;-90
2023/03/20 06:19:05;;;;;;;15.25;9.70;;;8.50;99.90;;;;;;6276866;22;20023;-90
2023/03/20 06:21:31;;;;;;;15.43;9.68;;;8.50;99.90;;;;;;6277116;22;20007;-90
2023/03/20 06:23:58;;;;;;;17.15;10.63;;;8.50;99.90;;;;;;6249904;22;20016;-90
2023/03/20 06:26:24;;;;;;;18.63;10.43;;;8.50;99.90;;;;;;6277282;22;20332;-90
2023/03/20 06:28:50;;;;;;;18.98;10.65;;;8.50;99.90;;;;;;6250868;22;20015;-90
2023/03/20 06:31:16;;;;;;;15.90;9.93;;;8.40;99.90;;;;;;6250394;22;20376;-90
2023/03/20 06:33:44;;;;;;;17.73;10.35;;;8.50;99.90;;;;;;6250946;22;20031;-90
2023/03/20 06:36:10;;;;;;;17.17;10.75;;;8.50;99.90;;;;;;6249668;22;20012;-91
2023/03/20 06:38:35;;;;;;;19.20;10.55;;;8.40;99.90;;;;;;6250010;22;20090;-90
2023/03/20 06:41:01;;;;;;;18.88;10.75;;;8.40;99.90;;;;;;6278509;22;20011;-91
2023/03/20 06:43:27;;;;;;;20.00;9.90;;;8.40;99.90;;;;;;6250584;22;20443;-91
2023/03/20 06:45:53;;;;;;;17.33;10.43;;;8.40;99.90;;;;;;6250108;22;20020;-90
2023/03/20 06:48:20;;;;;;;19.17;10.77;;;8.40;99.90;;;;;;6252494;22;20016;-90
2023/03/20 06:50:48;;;;;;;15.98;10.20;;;8.40;99.90;;;;;;6249941;22;20008;-91
2023/03/20 06:53:14;;;;;;;17.67;10.20;;;8.40;99.90;;;;;;6250835;22;20114;-91
2023/03/20 06:55:47;;;;;;;20.50;10.50;;;8.40;99.90;;;;;;6252447;22;20035;-91
2023/03/20 06:58:12;;;;;;;17.70;10.85;;;8.40;99.90;;;;;;6277719;22;20020;-91
2023/03/20 07:00:38;;;;;;;16.13;10.02;;;8.50;99.90;;;;;;6250653;22;20015;-92
2023/03/20 07:03:04;;;;;;;19.30;11.23;;;8.50;99.90;;;;;;6251260;22;20014;-92
2023/03/20 07:05:31;;;;;;;18.35;10.70;;;8.50;99.90;;;;;;6276468;22;20020;-92
2023/03/20 07:07:57;;;;;;;16.27;10.30;;;8.50;99.90;;;;;;6250313;22;20008;-90
2023/03/20 07:10:23;;;;;;;15.50;10.27;;;8.40;99.90;;;;;;6276600;22;20501;-90
2023/03/20 07:12:49;;;;;;;19.23;10.60;;;8.50;99.90;;;;;;6277185;22;20491;-91
2023/03/20 07:15:19;;;;;;;20.30;10.68;;;8.50;99.90;;;;;;6277445;22;20027;-90
2023/03/20 07:17:44;;;;;;;17.80;10.77;;;8.50;99.90;;;;;;6277940;22;20008;-91
2023/03/20 07:20:11;;;;;;;17.38;11.05;;;8.50;99.90;;;;;;6277837;22;20395;-91
2023/03/20 07:22:38;;;;;;;18.80;11.32;;;8.50;99.90;;;;;;6277924;22;20063;-90
2023/03/20 07:25:05;;;;;;;18.90;11.18;;;8.50;99.90;;;;;;6251028;22;20015;-90
2023/03/20 07:27:30;;;;;;;16.10;10.43;;;8.50;99.90;;;;;;6276934;22;20103;-91
2023/03/20 07:29:56;;;;;;;18.20;11.20;;;8.50;99.90;;;;;;6278250;22;20019;-90
2023/03/20 07:32:22;;;;;;;22.73;10.68;;;8.50;99.90;;;;;;6251896;22;20019;-90
2023/03/20 07:34:48;;;;;;;18.20;11.02;;;8.50;99.90;;;;;;6253389;22;20022;-91
2023/03/20 07:37:14;;;;;;;18.75;11.27;;;8.50;99.90;;;;;;6253261;22;20016;-92
2023/03/20 07:39:40;;;;;;;18.65;11.18;;;8.50;99.90;;;;;;6280372;22;20057;-90
2023/03/20 07:42:06;;;;;;;18.45;11.18;;;8.60;99.90;;;;;;6252623;22;20039;-91
2023/03/20 07:44:31;;;;;;;15.80;10.80;;;8.50;99.90;;;;;;6252538;22;20012;-89
2023/03/20 07:46:57;;;;;;;19.55;11.13;;;8.60;99.90;;;;;;6251782;22;20093;-91
2023/03/20 07:49:22;;;;;;;18.30;11.57;;;8.60;99.90;;;;;;6279058;22;20095;-90
2023/03/20 07:51:49;;;;;;;21.35;11.43;;;8.60;99.90;;;;;;6253072;22;20466;-91
2023/03/20 07:54:16;;;;;;;21.55;12.40;;;8.60;99.90;;;;;;6252195;22;20019;-91
2023/03/20 07:56:42;;;;;;;20.85;11.60;;;8.60;99.90;;;;;;6253314;22;20015;-90
2023/03/20 07:59:12;;;;;;;17.88;11.30;;;8.60;99.90;;;;;;6253023;22;20019;-90
2023/03/20 08:01:38;;;;;;;19.95;11.52;;;8.70;99.90;;;;;;6252809;22;20060;-90
2023/03/20 08:04:04;;;;;;;19.17;11.63;;;8.70;99.90;;;;;;6279827;22;20026;-91
2023/03/20 08:06:30;;;;;;;19.50;11.30;;;8.70;99.90;;;;;;6252396;22;20098;-90
2023/03/20 08:08:55;;;;;;;21.25;11.48;;;8.70;99.90;;;;;;6253052;22;20347;-90
2023/03/20 08:11:21;;;;;;;18.63;10.98;;;8.80;99.90;;;;;;6252416;22;20012;-86
2023/03/20 08:13:47;;;;;;;22.10;12.13;;;8.80;99.90;;;;;;6249982;22;20023;-86
2023/03/20 08:16:12;;;;;;;21.50;12.38;;;8.80;99.90;;;;;;6277170;22;20095;-86
2023/03/20 08:18:38;;;;;;;22.10;12.43;;;8.80;99.90;;;;;;6250007;22;20015;-86
2023/03/20 08:21:04;;;;;;;19.88;11.55;;;8.80;99.90;;;;;;6250846;22;20019;-86
2023/03/20 08:23:29;;;;;;;20.08;11.13;;;8.80;99.90;;;;;;6249183;22;20016;-86
2023/03/20 08:25:55;;;;;;;23.10;11.88;;;8.90;99.90;;;;;;6250775;22;20019;-86
2023/03/20 08:28:22;;;;;;;22.27;11.30;;;8.90;99.90;;;;;;6277664;22;20012;-86
2023/03/20 08:30:47;;;;;;;19.52;11.27;;;8.90;99.90;;;;;;6276988;22;20043;-87
2023/03/20 08:33:15;;;;;;;25.27;11.55;;;8.90;99.90;;;;;;6277593;22;20028;-90
2023/03/20 08:35:40;;;;;;;21.23;10.40;;;8.90;99.90;;;;;;6251221;22;20011;-88
2023/03/20 08:38:06;;;;;;;20.25;10.75;;;9.00;99.90;;;;;;6250174;22;20078;-88
2023/03/20 08:40:32;;;;;;;21.52;10.98;;;9.00;99.90;;;;;;6250747;22;20348;-89
2023/03/20 08:42:58;;;;;;;21.60;11.20;;;9.00;99.90;;;;;;6277907;22;20017;-90
2023/03/20 08:45:25;;;;;;;21.70;11.15;;;9.10;99.90;;;;;;6250587;22;20019;-90
2023/03/20 08:47:51;;;;;;;22.05;11.13;;;9.10;99.90;;;;;;6251235;22;20015;-91
2023/03/20 08:50:17;;;;;;;18.77;11.00;;;9.20;99.90;;;;;;6277832;22;20444;-90
2023/03/20 08:52:43;;;;;;;20.23;10.30;;;9.20;99.90;;;;;;6277939;22;20102;-91
2023/03/20 08:55:13;;;;;;;21.20;11.18;;;9.30;99.90;;;;;;6251308;22;20039;-89
2023/03/20 08:57:40;;;;;;;21.00;11.13;;;9.30;99.90;;;;;;6250687;22;20069;-91
2023/03/20 09:00:07;;;;;;;21.25;10.13;;;9.30;99.90;;;;;;6250523;22;20020;-91
2023/03/20 09:02:33;;;;;;;19.70;10.15;;;9.30;99.90;;;;;;6251033;22;20041;-90
2023/03/20 09:04:58;;;;;;;19.92;10.30;;;9.40;99.90;;;;;;6251535;22;20046;-90
2023/03/20 09:07:25;;;;;;;15.98;9.35;;;9.40;99.90;;;;;;6278436;22;20428;-93
2023/03/20 09:09:50;;;;;;;18.73;11.10;;;9.40;99.90;;;;;;6251916;22;20023;-93
2023/03/20 09:12:16;;;;;;;18.35;10.10;;;9.40;99.90;;;;;;6251026;22;20018;-91
2023/03/20 09:14:42;;;;;;;20.13;10.65;;;9.40;99.90;;;;;;6278340;22;20020;-91
2023/03/20 09:17:07;;;;;;;19.00;9.75;;;9.50;99.90;;;;;;6250853;22;20012;-93
2023/03/20 09:19:34;;;;;;;18.50;10.23;;;9.50;99.90;;;;;;6251315;22;20015;-92
2023/03/20 09:21:59;;;;;;;17.85;9.98;;;9.60;99.90;;;;;;6278710;22;20015;-91
2023/03/20 09:24:32;;;;;;;16.80;9.07;;;9.60;99.90;;;;;;6251936;22;20015;-91
2023/03/20 09:26:59;;;;;;;20.13;9.60;;;9.60;99.90;;;;;;6250978;22;20012;-91
2023/03/20 09:29:25;;;;;;;16.48;9.43;;;9.70;99.90;;;;;;6250184;22;20019;-90
2023/03/20 09:31:53;;;;;;;17.77;9.07;;;9.70;99.90;;;;;;6250897;22;20018;-91
2023/03/20 09:34:19;;;;;;;20.75;10.02;;;9.80;99.90;;;;;;6250396;22;20383;-91
2023/03/20 09:36:45;;;;;;;23.10;10.90;;;9.90;99.90;;;;;;6251071;22;20015;-92
2023/03/20 09:39:10;;;;;;;20.52;10.40;;;9.90;99.90;;;;;;6250341;22;20023;-91
2023/03/20 09:41:37;;;;;;;17.65;8.68;;;10.00;99.90;;;;;;6250455;22;20041;-91
2023/03/20 09:44:30;;;;;;;19.50;8.40;;;10.00;99.90;;;;;;6225732;22;20033;-91
2023/03/20 09:47:11;;;;;;;14.48;8.10;;;10.00;99.90;;;;;;6250655;22;20043;-91
2023/03/20 09:49:58;;;;;;;17.08;8.98;;;10.00;99.90;;;;;;6250460;22;20026;-91
2023/03/20 09:52:47;;;;;;;17.15;8.52;;;10.00;99.80;;;;;;6250217;22;20011;-92
2023/03/20 09:55:16;;;;;;;18.88;8.38;;;10.00;99.70;;;;;;6231453;22;20082;-92
2023/03/20 09:57:51;;;;;;;18.75;8.98;;;10.10;99.80;;;;;;6251018;22;20065;-93
2023/03/20 10:00:24;;;;;;;16.42;8.98;;;10.10;99.70;;;;;;6250588;22;20066;-93
2023/03/20 10:03:00;;;;;;;18.98;8.95;;;10.20;99.80;;;;;;6277664;22;20011;-90
2023/03/20 10:06:06;;;;;;;16.48;8.50;;;10.20;99.60;;;;;;6250272;22;20022;-88
2023/03/20 10:08:37;;;;;;;18.40;9.52;;;10.30;99.80;;;;;;6099826;23;20133;-91
2023/03/20 10:11:11;;;;;;;20.30;9.27;;;10.30;99.80;;;;;;6125284;23;20029;-91
2023/03/20 10:13:37;;;;;;;19.08;8.80;;;10.30;99.70;;;;;;6184232;22;20336;-91
2023/03/20 10:16:30;;;;;;;16.40;9.07;;;10.40;99.60;;;;;;6249803;22;20026;-91
2023/03/20 10:19:17;;;;;;;20.52;8.90;;;10.40;99.40;;;;;;6250943;22;20507;-91
2023/03/20 10:21:49;;;;;;;20.45;8.80;;;10.40;99.30;;;;;;6250359;22;20325;-92
2023/03/20 10:24:41;;;;;;;21.23;8.60;;;10.40;99.50;;;;;;6249521;22;20095;-91
2023/03/20 10:27:20;;;;;;;20.80;8.38;;;10.40;99.20;;;;;;6277980;22;20012;-92
2023/03/20 10:29:55;;;;;;;16.90;8.23;;;10.50;99.20;;;;;;6250032;22;20026;-91
2023/03/20 10:32:27;;;;;;;18.70;8.48;;;10.40;99.20;;;;;;6277461;22;20015;-92
2023/03/20 10:35:10;;;;;;;19.20;8.30;;;10.40;99.10;;;;;;6277253;22;20020;-91
2023/03/20 10:37:39;;;;;;;19.17;8.18;;;10.40;99.10;;;;;;6250598;22;20447;-88
2023/03/20 10:40:27;;;;;;;20.20;9.43;;;10.40;99.40;;;;;;6276336;22;20441;-90
2023/03/20 10:42:56;;;;;;;15.43;8.13;;;10.40;99.30;;;;;;6249773;22;20016;-89
2023/03/20 10:45:31;;;;;;;15.20;7.65;;;10.40;99.50;;;;;;6248974;22;20024;-89
2023/03/20 10:48:01;;;;;;;17.58;7.88;;;10.50;99.40;;;;;;6276245;22;20016;-89
2023/03/20 10:50:54;;;;;;;16.15;7.80;;;10.50;99.60;;;;;;6276532;22;20015;-89
2023/03/20 10:53:36;;;;;;;18.92;7.82;;;10.50;99.50;;;;;;6245819;22;20016;-89
2023/03/20 10:56:05;;;;;;;16.00;7.05;;;10.50;99.50;;;;;;6249161;22;20015;-90
2023/03/20 10:58:38;;;;;;;14.90;7.38;;;10.50;99.50;;;;;;6249505;22;20012;-89
2023/03/20 11:01:04;;;;;;;15.80;7.38;;;10.60;99.30;;;;;;6277064;22;20016;-89
2023/03/20 11:03:31;;;;;;;15.00;6.97;;;10.60;99.30;;;;;;6276233;22;20460;-89
2023/03/20 11:06:24;;;;;;;16.88;6.60;;;10.70;99.20;;;;;;6276785;22;20039;-89
2023/03/20 11:08:51;;;;;;;13.48;6.65;;;10.60;99.00;;;;;;6279601;22;20019;-92
2023/03/20 11:11:32;;;;;;;14.45;6.50;;;10.60;99.10;;;;;;6252214;22;20016;-90
2023/03/20 11:14:14;;;;;;;12.07;5.97;;;10.70;99.00;;;;;;6278206;22;20012;-89
2023/03/20 11:16:40;;;;;;;15.05;6.60;;;10.60;98.80;;;;;;6251501;22;20057;-89
2023/03/20 11:19:07;;;;;;;15.70;6.32;;;10.60;99.00;;;;;;6251368;22;20041;-89
2023/03/20 11:21:43;;;;;;;13.65;5.43;;;10.70;99.00;;;;;;6278706;22;20091;-90
2023/03/20 11:24:40;;;;;;;12.90;5.18;;;10.70;98.90;;;;;;6253234;22;20456;-90
2023/03/20 11:27:08;;;;;;;13.68;5.28;;;10.60;98.60;;;;;;6278986;22;20462;-89
2023/03/20 11:29:34;;;;;;;14.45;5.80;;;10.60;98.60;;;;;;6278213;22;20051;-89
2023/03/20 11:32:33;;;;;;;15.50;4.97;;;10.60;98.80;;;;;;6278869;22;20020;-89
2023/03/20 11:35:24;;;;;;;14.70;4.82;;;10.60;98.70;;;;;;6252390;22;20482;-89
2023/03/20 11:37:54;;;;;;;14.43;5.63;;;10.60;98.50;;;;;;6252192;22;20123;-90
2023/03/20 11:40:31;;;;;;;15.77;5.50;;;10.60;98.80;;;;;;6251668;22;20015;-89
2023/03/20 11:43:07;;;;;;;16.05;6.35;;;10.50;98.60;;;;;;6250982;22;20065;-89
2023/03/20 11:45:45;;;;;;;15.98;5.95;;;10.50;98.60;;;;;;6278088;22;20020;-89
2023/03/20 11:48:38;;;;;;;15.93;6.13;;;10.50;98.80;;;;;;6278124;22;20063;-89
2023/03/20 11:51:10;;;;;;;11.23;5.00;;;10.50;98.90;;;;;;6238065;22;20027;-89
2023/03/20 11:53:40;;;;;;;11.75;5.07;;;10.50;99.20;;;;;;6278976;22;20008;-88
2023/03/20 11:56:11;;;;;;;12.40;5.20;;;10.50;99.10;;;;;;6277817;22;20015;-89
2023/03/20 11:59:00;;;;;;;10.85;5.05;;;10.50;99.00;;;;;;6250764;22;20165;-89
2023/03/20 12:01:27;;;;;;;11.57;4.53;;;10.50;98.90;;;;;;6278044;22;20019;-88
2023/03/20 12:04:12;;;;;;;12.65;4.03;;;10.50;99.20;;;;;;6250825;22;20134;-88
2023/03/20 12:06:55;;;;;;;15.43;4.88;;;10.50;98.70;;;;;;6250668;22;20332;-89
2023/03/20 12:09:47;;;;;;;10.77;3.50;;;10.50;99.10;;;;;;6250749;22;20455;-88
2023/03/20 12:12:39;;;;;;;11.57;4.35;;;10.50;99.00;;;;;;6250191;22;20145;-88
2023/03/20 12:15:11;;;;;;;11.10;4.18;;;10.50;99.10;;;;;;6250707;22;20062;-89
2023/03/20 12:17:55;;;;;;;10.95;3.63;;;10.50;99.70;;;;;;6278420;22;20023;-89
2023/03/20 12:20:37;;;;;;;11.50;2.90;;;10.50;99.90;;;;;;6250365;22;20019;-89
2023/03/20 12:23:08;;;;;;;10.07;3.50;;;10.50;99.90;;;;;;6278066;22;20344;-89
2023/03/20 12:25:58;;;;;;;11.35;3.15;;;10.50;99.90;;;;;;6278067;22;20020;-89
2023/03/20 12:28:53;;;;;;;10.18;3.90;;;10.50;99.90;;;;;;6250784;22;20336;-89
2023/03/20 12:31:40;;;;;;;9.00;3.60;;;10.50;99.90;;;;;;6277891;22;20471;-91
2023/03/20 12:34:31;;;;;;;9.13;4.07;;;10.50;99.90;;;;;;6277838;22;20023;-90
2023/03/20 12:36:56;;;;;;;11.40;3.63;;;10.50;99.90;;;;;;6251166;22;20024;-93
2023/03/20 12:39:37;;;;;;;9.38;3.47;;;10.60;99.90;;;;;;6277493;22;20016;-91
2023/03/20 12:42:21;;;;;;;9.68;4.18;;;10.60;99.90;;;;;;6250772;22;20011;-91
2023/03/20 12:44:46;;;;;;;10.40;4.20;;;10.60;99.90;;;;;;6277513;22;20022;-91
2023/03/20 12:47:38;;;;;;;12.40;4.00;;;10.50;99.90;;;;;;6277573;22;20047;-88
2023/03/20 12:50:36;;;;;;;13.10;4.30;;;10.60;99.90;;;;;;6250324;22;20020;-88
2023/03/20 12:53:26;;;;;;;8.48;3.53;;;10.50;99.90;;;;;;6277521;22;20022;-90
2023/03/20 12:56:34;;;;;;;11.48;3.78;;;10.50;99.90;;;;;;6250342;22;20020;-89
2023/03/20 12:59:38;;;;;;;14.50;4.28;;;10.50;99.90;;;;;;6234108;22;20465;-89
2023/03/20 13:02:22;;;;;;;9.90;4.30;;;10.50;99.90;;;;;;6203472;22;20022;-90
2023/03/20 13:05:12;;;;;;;11.73;4.50;;;10.40;99.90;;;;;;6277619;22;20345;-89
2023/03/20 13:07:59;;;;;;;14.05;5.00;;;10.50;99.90;;;;;;6277817;22;20471;-89